createdAt,value
2019-02-22T00:00:52.528Z,13.95
2019-02-22T00:03:25.759Z,10.40
2019-02-22T00:05:59.010Z,8.85
2019-02-22T00:08:32.247Z,7.45
2019-02-22T00:11:05.511Z,8.13
2019-02-22T00:13:38.755Z,5.17
2019-02-22T00:16:13.071Z,7.53
2019-02-22T00:18:46.302Z,11.25
2019-02-22T00:21:19.549Z,6.37
2019-02-22T00:23:52.775Z,7.72
2019-02-22T00:26:26.038Z,6.92
2019-02-22T00:28:59.283Z,10.35
2019-02-22T00:31:32.534Z,6.53
2019-02-22T00:34:05.782Z,7.37
2019-02-22T00:36:39.069Z,7.42
2019-02-22T00:39:12.236Z,10.78
2019-02-22T00:41:45.491Z,9.20
2019-02-22T00:44:18.722Z,8.35
2019-02-22T00:46:51.977Z,9.23
2019-02-22T00:49:25.203Z,6.95
2019-02-22T00:51:58.453Z,8.65
2019-02-22T00:54:31.688Z,9.65
2019-02-22T00:57:04.948Z,8.13
2019-02-22T00:59:38.180Z,8.15
2019-02-22T01:02:11.435Z,6.08
2019-02-22T01:04:44.669Z,8.13
2019-02-22T01:07:17.921Z,8.58
2019-02-22T01:09:51.157Z,10.98
2019-02-22T01:12:24.408Z,7.87
2019-02-22T01:14:57.632Z,7.78
2019-02-22T01:17:30.879Z,7.25
2019-02-22T01:20:05.079Z,6.22
2019-02-22T01:22:38.316Z,7.37
2019-02-22T01:25:11.550Z,7.37
2019-02-22T01:27:44.802Z,8.03
2019-02-22T01:30:18.036Z,6.72
2019-02-22T01:32:51.294Z,7.58
2019-02-22T01:35:24.521Z,7.10
2019-02-22T01:37:57.773Z,8.35
2019-02-22T01:40:42.656Z,8.23
2019-02-22T01:43:05.955Z,6.75
2019-02-22T01:45:39.203Z,8.10
2019-02-22T01:48:12.441Z,8.85
2019-02-22T01:50:45.666Z,7.35
2019-02-22T01:53:18.940Z,7.95
2019-02-22T01:55:52.138Z,8.40
2019-02-22T01:58:25.393Z,7.25
2019-02-22T02:00:58.621Z,8.55
2019-02-22T02:03:32.160Z,10.35
2019-02-22T02:06:05.385Z,10.13
2019-02-22T02:08:38.644Z,11.50
2019-02-22T02:11:11.877Z,12.60
2019-02-22T02:13:45.139Z,14.43
2019-02-22T02:16:18.368Z,12.75
2019-02-22T02:18:51.728Z,6.10
2019-02-22T02:21:24.921Z,7.33
2019-02-22T02:23:58.175Z,10.08
2019-02-22T02:26:31.413Z,7.75
2019-02-22T02:29:05.730Z,10.60
2019-02-22T02:31:38.963Z,8.65
2019-02-22T02:34:12.213Z,8.85
2019-02-22T02:36:45.447Z,10.28
2019-02-22T02:39:18.705Z,8.05
2019-02-22T02:41:51.939Z,11.38
2019-02-22T02:44:25.190Z,22.10
2019-02-22T02:46:59.412Z,14.85
2019-02-22T02:49:32.881Z,9.68
2019-02-22T02:52:06.112Z,14.25
2019-02-22T02:54:39.369Z,12.73
2019-02-22T02:57:12.612Z,8.25
2019-02-22T02:59:45.872Z,12.33
2019-02-22T03:02:19.110Z,10.90
2019-02-22T03:04:52.359Z,18.30
2019-02-22T03:07:26.571Z,10.45
2019-02-22T03:09:59.827Z,14.20
2019-02-22T03:12:33.067Z,11.85
2019-02-22T03:15:11.356Z,14.07
2019-02-22T03:17:44.585Z,10.68
2019-02-22T03:20:17.842Z,15.48
2019-02-22T03:22:51.076Z,13.22
2019-02-22T03:25:24.333Z,12.18
2019-02-22T03:27:57.581Z,14.18
2019-02-22T03:30:30.835Z,14.85
2019-02-22T03:33:04.077Z,13.30
2019-02-22T03:35:37.330Z,11.12
2019-02-22T03:38:10.569Z,11.73
2019-02-22T03:40:43.812Z,14.55
2019-02-22T03:43:17.047Z,18.35
2019-02-22T03:45:50.322Z,13.83
2019-02-22T03:48:23.562Z,11.93
2019-02-22T03:50:56.823Z,11.63
2019-02-22T03:53:30.075Z,10.60
2019-02-22T03:56:03.599Z,9.63
2019-02-22T03:58:36.842Z,10.40
2019-02-22T04:01:10.086Z,9.90
2019-02-22T04:03:43.312Z,11.97
2019-02-22T04:06:16.582Z,14.73
2019-02-22T04:08:49.810Z,12.33
2019-02-22T04:11:23.057Z,10.93
2019-02-22T04:13:56.290Z,11.33
2019-02-22T04:16:29.540Z,12.58
2019-02-22T04:19:02.949Z,13.30
2019-02-22T04:21:36.194Z,11.10
2019-02-22T04:24:09.430Z,10.48
2019-02-22T04:26:42.692Z,10.98
2019-02-22T04:29:15.919Z,14.28
2019-02-22T04:31:49.170Z,13.70
2019-02-22T04:34:22.398Z,13.88
2019-02-22T04:36:55.643Z,12.68
2019-02-22T04:39:28.877Z,12.40
2019-02-22T04:42:02.122Z,13.10
2019-02-22T04:44:35.354Z,13.35
2019-02-22T04:47:08.602Z,11.35
2019-02-22T04:49:41.835Z,14.80
2019-02-22T04:52:15.083Z,14.03
2019-02-22T04:54:48.315Z,14.47
2019-02-22T04:57:21.554Z,16.00
2019-02-22T04:59:54.795Z,12.25
2019-02-22T05:02:28.048Z,10.78
2019-02-22T05:05:01.286Z,12.55
2019-02-22T05:07:34.537Z,14.23
2019-02-22T05:10:08.844Z,12.35
2019-02-22T05:12:42.089Z,11.28
2019-02-22T05:15:15.321Z,10.68
2019-02-22T05:17:48.577Z,13.45
2019-02-22T05:20:21.808Z,13.25
2019-02-22T05:23:03.274Z,12.30
2019-02-22T05:25:29.997Z,10.85
2019-02-22T05:28:03.269Z,14.25
2019-02-22T05:30:36.699Z,15.50
2019-02-22T05:33:09.954Z,15.78
2019-02-22T05:35:43.169Z,19.55
2019-02-22T05:38:16.411Z,14.85
2019-02-22T05:40:49.644Z,16.70
2019-02-22T05:43:22.893Z,14.55
2019-02-22T05:45:56.126Z,13.88
2019-02-22T05:48:29.374Z,15.08
2019-02-22T05:51:02.622Z,13.35
2019-02-22T05:53:35.862Z,10.32
2019-02-22T05:56:09.102Z,13.58
2019-02-22T05:58:42.359Z,14.07
2019-02-22T06:01:15.597Z,10.65
2019-02-22T06:03:48.847Z,16.30
2019-02-22T06:06:23.162Z,48.38
2019-02-22T06:08:56.414Z,96.85
2019-02-22T06:11:29.734Z,112.12
2019-02-22T06:14:02.913Z,109.40
2019-02-22T06:16:36.155Z,107.85
2019-02-22T06:19:09.404Z,106.52
2019-02-22T06:21:42.644Z,99.03
2019-02-22T06:24:16.245Z,95.72
2019-02-22T06:26:49.477Z,79.50
2019-02-22T06:29:22.724Z,94.42
2019-02-22T06:31:55.964Z,83.60
2019-02-22T06:34:29.218Z,79.10
2019-02-22T06:37:02.611Z,63.17
2019-02-22T06:39:36.949Z,68.85
2019-02-22T06:42:10.195Z,65.47
2019-02-22T06:44:43.447Z,74.37
2019-02-22T06:47:16.693Z,100.53
2019-02-22T06:49:49.964Z,83.55
2019-02-22T06:52:23.192Z,69.42
2019-02-22T06:54:56.442Z,75.10
2019-02-22T06:57:29.680Z,74.85
2019-02-22T07:00:08.184Z,68.07
2019-02-22T07:02:41.420Z,55.15
2019-02-22T07:05:14.671Z,53.87
2019-02-22T07:07:48.064Z,53.63
2019-02-22T07:10:21.346Z,52.08
2019-02-22T07:12:56.970Z,58.28
2019-02-22T07:15:29.541Z,44.18
2019-02-22T07:18:02.779Z,39.40
2019-02-22T07:20:36.035Z,40.20
2019-02-22T07:23:09.277Z,37.03
2019-02-22T07:25:42.522Z,37.88
2019-02-22T07:28:15.764Z,35.75
2019-02-22T07:30:49.024Z,30.82
2019-02-22T07:33:22.259Z,34.03
2019-02-22T07:35:55.509Z,34.80
2019-02-22T07:38:28.759Z,23.90
2019-02-22T07:41:02.006Z,22.27
2019-02-22T07:43:35.238Z,30.20
2019-02-22T07:46:08.487Z,24.77
2019-02-22T07:48:41.735Z,28.25
2019-02-22T07:51:14.989Z,24.47
2019-02-22T07:53:48.227Z,21.95
2019-02-22T07:56:21.473Z,21.12
2019-02-22T07:58:54.706Z,23.27
2019-02-22T08:01:27.971Z,23.98
2019-02-22T08:04:01.208Z,20.12
2019-02-22T08:06:34.474Z,20.55
2019-02-22T08:09:07.702Z,24.57
2019-02-22T08:11:40.966Z,20.95
2019-02-22T08:14:14.205Z,18.17
2019-02-22T08:16:47.460Z,20.50
2019-02-22T08:19:20.975Z,17.87
2019-02-22T08:21:54.230Z,17.77
2019-02-22T08:24:27.461Z,14.87
2019-02-22T08:27:00.714Z,18.57
2019-02-22T08:29:33.951Z,15.95
2019-02-22T08:32:07.194Z,15.70
2019-02-22T08:34:40.425Z,18.23
2019-02-22T08:37:13.668Z,13.95
2019-02-22T08:39:58.182Z,14.78
2019-02-22T08:42:22.172Z,17.90
2019-02-22T08:44:55.423Z,15.00
2019-02-22T08:47:28.661Z,14.63
2019-02-22T08:50:01.896Z,14.58
2019-02-22T08:52:35.148Z,11.63
2019-02-22T08:55:08.383Z,16.05
2019-02-22T08:57:41.645Z,16.02
2019-02-22T09:00:14.885Z,14.98
2019-02-22T09:02:48.150Z,19.73
2019-02-22T09:05:21.366Z,15.03
2019-02-22T09:07:54.609Z,14.45
2019-02-22T09:10:27.841Z,11.95
2019-02-22T09:13:01.263Z,14.85
2019-02-22T09:15:34.561Z,13.18
2019-02-22T09:18:07.809Z,14.75
2019-02-22T09:20:41.053Z,11.93
2019-02-22T09:23:14.307Z,16.80
2019-02-22T09:25:47.545Z,12.40
2019-02-22T09:28:20.803Z,14.38
2019-02-22T09:30:54.038Z,15.00
2019-02-22T09:33:27.307Z,14.38
2019-02-22T09:36:00.539Z,12.88
2019-02-22T09:38:33.776Z,12.15
2019-02-22T09:41:07.014Z,15.93
2019-02-22T09:43:40.250Z,11.53
2019-02-22T09:46:13.487Z,12.50
2019-02-22T09:48:47.079Z,13.22
2019-02-22T09:51:20.248Z,12.13
2019-02-22T09:53:53.498Z,12.10
2019-02-22T09:56:26.738Z,12.88
2019-02-22T09:58:59.999Z,14.68
2019-02-22T10:01:33.236Z,11.93
2019-02-22T10:04:06.485Z,10.60
2019-02-22T10:06:39.723Z,12.45
2019-02-22T10:09:12.975Z,11.15
2019-02-22T10:11:46.206Z,11.93
2019-02-22T10:14:19.453Z,11.93
2019-02-22T10:16:52.695Z,14.98
2019-02-22T10:19:25.954Z,13.13
2019-02-22T10:21:59.185Z,10.55
2019-02-22T10:24:32.424Z,10.53
2019-02-22T10:27:05.656Z,14.10
2019-02-22T10:29:38.889Z,13.90
2019-02-22T10:32:12.121Z,12.35
2019-02-22T10:34:45.376Z,12.47
2019-02-22T10:37:18.616Z,11.90
2019-02-22T10:39:51.855Z,13.13
2019-02-22T10:42:25.089Z,10.82
2019-02-22T10:44:58.576Z,11.65
2019-02-22T10:47:31.810Z,10.78
2019-02-22T10:50:07.201Z,12.88
2019-02-22T10:52:40.432Z,12.53
2019-02-22T10:55:14.113Z,13.18
2019-02-22T10:57:47.352Z,13.30
2019-02-22T11:00:20.608Z,12.82
2019-02-22T11:02:53.842Z,10.25
2019-02-22T11:05:27.103Z,11.88
2019-02-22T11:08:00.335Z,9.85
2019-02-22T11:10:33.579Z,12.65
2019-02-22T11:13:06.823Z,13.80
2019-02-22T11:15:40.077Z,13.78
2019-02-22T11:18:13.314Z,15.20
2019-02-22T11:20:46.554Z,18.32
2019-02-22T11:23:19.783Z,24.77
2019-02-22T11:25:53.028Z,18.62
2019-02-22T11:28:26.261Z,25.32
2019-02-22T11:30:59.523Z,18.15
2019-02-22T11:33:32.755Z,31.60
2019-02-22T11:36:06.011Z,28.80
2019-02-22T11:38:39.250Z,23.67
2019-02-22T11:41:12.509Z,26.05
2019-02-22T11:43:45.817Z,40.03
2019-02-22T11:46:20.152Z,20.72
2019-02-22T11:48:53.393Z,24.55
2019-02-22T11:51:26.654Z,18.77
2019-02-22T11:53:59.886Z,19.37
2019-02-22T11:56:33.144Z,22.20
2019-02-22T11:59:06.385Z,18.67
2019-02-22T12:01:39.645Z,21.33
2019-02-22T12:04:12.878Z,15.95
2019-02-22T12:06:46.128Z,19.62
2019-02-22T12:09:19.375Z,18.07
2019-02-22T12:11:52.622Z,21.33
2019-02-22T12:14:25.864Z,17.82
2019-02-22T12:16:59.110Z,18.00
2019-02-22T12:19:32.346Z,19.02
2019-02-22T12:22:05.676Z,16.30
2019-02-22T12:24:39.931Z,17.95
2019-02-22T12:27:14.230Z,21.07
2019-02-22T12:29:47.615Z,20.72
2019-02-22T12:32:20.861Z,17.25
2019-02-22T12:34:54.376Z,19.40
2019-02-22T12:37:27.630Z,15.75
2019-02-22T12:40:00.874Z,17.65
2019-02-22T12:42:34.186Z,17.55
2019-02-22T12:45:11.267Z,17.65
2019-02-22T12:47:44.512Z,16.75
2019-02-22T12:50:17.751Z,19.40
2019-02-22T12:52:51.324Z,15.18
2019-02-22T12:55:24.568Z,18.05
2019-02-22T12:57:57.824Z,14.70
2019-02-22T13:00:32.059Z,20.57
2019-02-22T13:03:05.291Z,20.60
2019-02-22T13:05:38.522Z,18.42
2019-02-22T13:08:11.773Z,19.98
2019-02-22T13:10:45.005Z,15.32
2019-02-22T13:13:18.247Z,19.30
2019-02-22T13:15:51.480Z,23.38
2019-02-22T13:18:24.735Z,17.07
2019-02-22T13:20:57.985Z,19.65
2019-02-22T13:23:31.209Z,16.52
2019-02-22T13:26:04.442Z,18.75
2019-02-22T13:28:37.688Z,15.40
2019-02-22T13:31:10.917Z,15.15
2019-02-22T13:33:44.176Z,17.10
2019-02-22T13:36:17.410Z,15.03
2019-02-22T13:38:50.649Z,13.13
2019-02-22T13:41:23.881Z,14.03
2019-02-22T13:43:58.101Z,11.68
2019-02-22T13:46:32.305Z,11.50
2019-02-22T13:49:05.560Z,12.47
2019-02-22T13:51:38.791Z,11.85
2019-02-22T13:54:12.300Z,10.55
2019-02-22T13:56:45.539Z,10.20
2019-02-22T13:59:18.857Z,11.68
2019-02-22T14:01:52.087Z,12.47
2019-02-22T14:04:25.334Z,8.40
2019-02-22T14:06:58.574Z,10.32
2019-02-22T14:09:31.818Z,10.45
2019-02-22T14:12:05.059Z,8.80
2019-02-22T14:14:38.302Z,8.40
2019-02-22T14:17:11.536Z,7.90
2019-02-22T14:19:44.788Z,7.40
2019-02-22T14:22:18.021Z,9.05
2019-02-22T14:24:51.259Z,9.25
2019-02-22T14:27:24.488Z,9.50
2019-02-22T14:29:57.733Z,8.53
2019-02-22T14:32:30.970Z,10.18
2019-02-22T14:35:05.246Z,8.58
2019-02-22T14:37:38.592Z,10.40
2019-02-22T14:40:12.644Z,5.53
2019-02-22T14:42:45.872Z,7.90
2019-02-22T14:45:19.121Z,6.83
2019-02-22T14:47:52.346Z,7.45
2019-02-22T14:50:25.601Z,7.45
2019-02-22T14:52:59.159Z,6.75
2019-02-22T14:55:32.412Z,4.42
2019-02-22T14:58:05.646Z,6.80
2019-02-22T15:00:38.890Z,5.72
2019-02-22T15:03:12.120Z,6.28
2019-02-22T15:05:45.372Z,5.78
2019-02-22T15:08:18.611Z,9.10
2019-02-22T15:10:51.865Z,7.83
2019-02-22T15:13:25.100Z,5.03
2019-02-22T15:16:01.797Z,9.70
2019-02-22T15:18:33.508Z,4.33
2019-02-22T15:21:06.983Z,5.95
2019-02-22T15:23:40.224Z,10.28
2019-02-22T15:26:13.482Z,4.80
2019-02-22T15:28:48.344Z,4.50
2019-02-22T15:31:21.577Z,5.35
2019-02-22T15:33:57.209Z,5.22
2019-02-22T15:36:30.056Z,5.87
2019-02-22T15:39:04.521Z,4.70
2019-02-22T15:41:39.396Z,4.15
2019-02-22T15:44:12.643Z,3.83
2019-02-22T15:46:45.893Z,7.53
2019-02-22T15:49:21.790Z,6.67
2019-02-22T15:51:55.033Z,5.65
2019-02-22T15:54:28.276Z,5.50
2019-02-22T15:57:01.515Z,4.22
2019-02-22T15:59:34.736Z,5.67
2019-02-22T16:02:07.980Z,6.12
2019-02-22T16:04:41.211Z,4.97
2019-02-22T16:07:14.444Z,3.45
2019-02-22T16:09:47.678Z,4.75
2019-02-22T16:12:20.919Z,5.22
2019-02-22T16:14:54.151Z,3.80
2019-02-22T16:17:27.389Z,3.80
2019-02-22T16:20:00.622Z,4.72
2019-02-22T16:22:33.861Z,3.30
2019-02-22T16:25:18.569Z,6.05
2019-02-22T16:27:42.039Z,5.37
2019-02-22T16:30:16.036Z,6.22
2019-02-22T16:32:49.283Z,4.80
2019-02-22T16:35:22.514Z,5.33
2019-02-22T16:37:55.762Z,3.20
2019-02-22T16:40:28.993Z,3.27
2019-02-22T16:43:02.314Z,3.83
2019-02-22T16:45:35.554Z,4.87
2019-02-22T16:48:08.786Z,3.60
2019-02-22T16:50:42.020Z,4.05
2019-02-22T16:53:15.507Z,3.15
2019-02-22T16:55:48.742Z,3.50
2019-02-22T16:58:21.976Z,3.50
2019-02-22T17:00:55.214Z,4.70
2019-02-22T17:03:28.456Z,3.02
2019-02-22T17:06:01.982Z,4.22
2019-02-22T17:08:35.230Z,3.22
2019-02-22T17:11:08.461Z,2.77
2019-02-22T17:13:41.695Z,2.85
2019-02-22T17:16:16.622Z,4.33
2019-02-22T17:18:49.867Z,3.37
2019-02-22T17:21:23.095Z,3.52
2019-02-22T17:23:57.304Z,4.78
2019-02-22T17:26:30.531Z,5.40
2019-02-22T17:29:03.784Z,7.47
2019-02-22T17:31:37.018Z,4.83
2019-02-22T17:34:10.258Z,4.62
2019-02-22T17:36:43.488Z,6.25
2019-02-22T17:39:16.727Z,6.17
2019-02-22T17:41:49.953Z,4.72
2019-02-22T17:44:23.205Z,5.95
2019-02-22T17:46:57.901Z,5.22
2019-02-22T17:49:31.379Z,6.75
2019-02-22T17:52:04.614Z,13.68
2019-02-22T17:54:37.853Z,5.53
2019-02-22T17:57:11.080Z,7.22
2019-02-22T17:59:44.334Z,6.30
2019-02-22T18:02:17.564Z,7.72
2019-02-22T18:04:50.806Z,8.25
2019-02-22T18:07:24.033Z,8.03
2019-02-22T18:09:57.269Z,8.68
2019-02-22T18:12:30.765Z,6.37
2019-02-22T18:15:06.651Z,7.75
2019-02-22T18:17:41.822Z,7.87
2019-02-22T18:20:15.076Z,6.92
2019-02-22T18:22:48.306Z,6.78
2019-02-22T18:25:21.561Z,6.87
2019-02-22T18:27:54.795Z,6.72
2019-02-22T18:30:28.036Z,6.90
2019-02-22T18:33:01.260Z,7.55
2019-02-22T18:35:34.543Z,6.03
2019-02-22T18:38:07.734Z,6.65
2019-02-22T18:40:40.987Z,6.00
2019-02-22T18:43:14.212Z,5.65
2019-02-22T18:45:47.461Z,6.17
2019-02-22T18:48:20.695Z,5.95
2019-02-22T18:50:53.951Z,7.87
2019-02-22T18:53:27.176Z,4.83
2019-02-22T18:56:00.439Z,8.50
2019-02-22T18:58:33.664Z,3.90
2019-02-22T19:01:06.900Z,4.30
2019-02-22T19:03:40.129Z,4.65
2019-02-22T19:06:13.368Z,4.20
2019-02-22T19:08:46.604Z,3.62
2019-02-22T19:11:19.857Z,3.62
2019-02-22T19:13:53.086Z,4.35
2019-02-22T19:16:26.321Z,4.30
2019-02-22T19:18:59.559Z,3.33
2019-02-22T19:21:32.806Z,4.47
2019-02-22T19:24:06.029Z,4.85
2019-02-22T19:26:39.282Z,5.03
2019-02-22T19:29:12.515Z,2.72
2019-02-22T19:31:45.755Z,3.10
2019-02-22T19:34:18.990Z,3.75
2019-02-22T19:36:52.232Z,5.22
2019-02-22T19:39:25.557Z,5.00
2019-02-22T19:41:58.784Z,16.52
2019-02-22T19:44:32.019Z,4.72
2019-02-22T19:47:05.261Z,10.90
2019-02-22T19:49:38.490Z,6.72
2019-02-22T19:52:11.732Z,6.37
2019-02-22T19:54:45.003Z,6.95
2019-02-22T19:57:18.219Z,5.22
2019-02-22T19:59:51.445Z,7.97
2019-02-22T20:02:24.685Z,6.50
2019-02-22T20:04:57.917Z,11.48
2019-02-22T20:07:31.175Z,5.25
2019-02-22T20:10:17.433Z,6.47
2019-02-22T20:12:42.693Z,8.60
2019-02-22T20:15:16.567Z,9.50
2019-02-22T20:17:54.571Z,7.22
2019-02-22T20:20:24.747Z,12.23
2019-02-22T20:22:57.997Z,12.73
2019-02-22T20:25:32.854Z,11.85
2019-02-22T20:28:06.104Z,11.75
2019-02-22T20:30:39.523Z,15.43
2019-02-22T20:33:12.761Z,8.70
2019-02-22T20:35:47.124Z,12.15
2019-02-22T20:38:20.388Z,9.23
2019-02-22T20:40:53.622Z,5.17
2019-02-22T20:43:26.860Z,5.22
2019-02-22T20:46:00.088Z,9.40
2019-02-22T20:48:33.332Z,10.00
2019-02-22T20:51:06.567Z,7.25
2019-02-22T20:53:39.807Z,9.98
2019-02-22T20:56:13.038Z,9.78
2019-02-22T20:58:46.283Z,8.48
2019-02-22T21:01:19.518Z,11.18
2019-02-22T21:03:52.779Z,12.60
2019-02-22T21:06:26.013Z,13.85
2019-02-22T21:08:59.248Z,9.05
2019-02-22T21:11:32.480Z,8.58
2019-02-22T21:14:05.731Z,9.08
2019-02-22T21:16:38.967Z,17.55
2019-02-22T21:19:12.204Z,9.93
2019-02-22T21:21:46.516Z,14.33
2019-02-22T21:24:19.754Z,9.08
2019-02-22T21:26:52.988Z,12.43
2019-02-22T21:29:27.311Z,18.60
2019-02-22T21:32:00.647Z,14.53
2019-02-22T21:34:33.904Z,12.60
2019-02-22T21:37:07.133Z,8.38
2019-02-22T21:39:40.371Z,11.28
2019-02-22T21:42:20.198Z,10.13
2019-02-22T21:44:48.548Z,8.53
2019-02-22T21:47:21.787Z,9.53
2019-02-22T21:49:55.017Z,25.43
2019-02-22T21:52:28.280Z,20.02
2019-02-22T21:55:01.515Z,16.42
2019-02-22T21:57:35.035Z,14.78
2019-02-22T22:00:23.789Z,13.70
2019-02-22T22:02:57.038Z,14.80
2019-02-22T22:05:30.293Z,20.52
2019-02-22T22:08:03.533Z,12.53
2019-02-22T22:10:36.777Z,12.43
2019-02-22T22:13:10.018Z,15.83
2019-02-22T22:15:43.261Z,17.00
2019-02-22T22:18:16.693Z,15.08
2019-02-22T22:20:49.925Z,11.55
2019-02-22T22:23:23.176Z,15.55
2019-02-22T22:25:56.409Z,15.68
2019-02-22T22:28:29.696Z,18.25
2019-02-22T22:31:02.941Z,16.93
2019-02-22T22:33:36.181Z,11.65
2019-02-22T22:36:09.414Z,17.20
2019-02-22T22:38:42.650Z,11.15
2019-02-22T22:41:15.889Z,12.43
2019-02-22T22:43:49.135Z,14.03
2019-02-22T22:46:22.365Z,23.12
2019-02-22T22:48:55.611Z,19.50
2019-02-22T22:51:28.842Z,21.95
2019-02-22T22:54:02.089Z,16.02
2019-02-22T22:56:35.324Z,9.83
2019-02-22T22:59:08.579Z,13.05
2019-02-22T23:01:41.809Z,14.43
2019-02-22T23:04:16.129Z,11.30
2019-02-22T23:06:49.372Z,11.55
2019-02-22T23:09:22.633Z,12.37
2019-02-22T23:11:55.871Z,13.10
2019-02-22T23:14:29.125Z,12.20
2019-02-22T23:17:02.361Z,11.78
2019-02-22T23:19:35.635Z,10.98
2019-02-22T23:22:08.861Z,15.23
2019-02-22T23:24:42.110Z,9.43
2019-02-22T23:27:15.341Z,14.40
2019-02-22T23:29:48.603Z,12.25
2019-02-22T23:32:21.841Z,12.18
2019-02-22T23:34:55.090Z,15.30
2019-02-22T23:37:28.328Z,15.60
2019-02-22T23:40:01.577Z,13.20
2019-02-22T23:42:34.815Z,16.67
2019-02-22T23:45:08.064Z,12.85
2019-02-22T23:47:41.313Z,15.63
2019-02-22T23:50:14.549Z,12.95
2019-02-22T23:52:47.798Z,11.43
2019-02-22T23:55:21.037Z,11.12
2019-02-22T23:57:54.272Z,12.63
